• Join FlightAware (Why Join?)
  • Login
  • US Flag 
 
08:19PM EST


 

Airport Tracker/Info


-or-


 

Live Flight TrackerFlight Track Log ✈ N6711L ✈ 13-Dec-2013 ✈ KAPF - KGNV

Flight Track Log - Related Links

Times and Time Zones

All times are in EST time to prevent confusion due to time zone crossing. See the N6711L flight status page for this flight to view local times or setup timezone preferences in your user account.

Time Position Orientation Groundspeed Altitude Reporting Facility
EST Latitude Longitude Course Direction KTS MPH feet Rate Location/Type
08:34AM 26.4150 -81.8114 355° North  Level Estimated
08:35AM 26.4590 -81.8149 356° North  Level FlightAware Approximate
08:36AM 26.5030 -81.8184 356° North  Level FlightAware Approximate
08:37AM 26.5469 -81.8220 356° North  Level FlightAware Approximate
08:38AM 26.5909 -81.8255 356° North  Level FlightAware Approximate
08:39AM 26.6349 -81.8290 356° North  Level FlightAware Approximate
08:40AM 26.6788 -81.8326 356° North  Level FlightAware Approximate
08:40AM 26.5594 -81.8356 356° North 178 205 8,000  Level Miami Center
08:41AM 26.7228 -81.8361 356° North  Level FlightAware Approximate
08:41AM 26.6072 -81.8422 353° North 192 221 8,100  Level Miami Center
08:42AM 26.7668 -81.8397 356° North  Level FlightAware Approximate
08:42AM 26.6569 -81.8492 353° North 187 215 8,100  Level Miami Center
08:43AM 26.8107 -81.8432 356° North  Level FlightAware Approximate
08:43AM 26.7050 -81.8511 358° North 177 204 8,100  Level Miami Center
08:44AM 26.8545 -81.8496 354° North  Level Estimated
08:44AM 26.7569 -81.8603 351° North 177 204 8,100  Level Miami Center
08:45AM 26.8984 -81.8533 356° North  Level FlightAware Approximate
08:45AM 26.8069 -81.8647 355° North 177 204 8,100  Level Miami Center
08:46AM 26.8525 -81.8714 353° North 177 204 8,100  Level Miami Center
08:47AM 26.9025 -81.8783 353° North 177 204 8,100  Level Miami Center
08:48AM 26.9503 -81.8825 356° North 177 204 8,100  Level Miami Center
08:49AM 27.0000 -81.8894 353° North 172 198 8,100  Level Miami Center
08:50AM 27.0478 -81.8961 353° North 177 204 8,200  Climbing Miami Center
08:51AM 27.0978 -81.9031 353° North 177 204 8,200  Level Miami Center
08:52AM 27.1475 -81.9097 353° North 177 204 8,200  Level Miami Center
08:53AM 27.1975 -81.9142 355° North 177 204 8,200 -60 Level Miami Center
08:54AM 27.2472 -81.9211 353° North 177 204 8,100  Descending Miami Center
08:55AM 27.2972 -81.9281 353° North 177 204 8,200  Climbing Miami Center
08:56AM 27.3469 -81.9350 353° North 177 204 8,200  Level Miami Center
08:57AM 27.3969 -81.9394 355° North 177 204 8,200  Level Miami Center
08:58AM 27.4469 -81.9464 353° North 177 204 8,200  Level Miami Center
08:59AM 27.4967 -81.9533 353° North 177 204 8,300  Climbing Miami Center
09:00AM 27.5447 -81.9531 360° North 177 204 8,300 -60 Level Miami Center
09:01AM 27.5944 -81.9622 351° North 177 204 8,200  Descending Miami Center
09:02AM 27.6486 -81.9669 356° North 177 204 8,300 -60 Climbing Miami Center
09:03AM 27.6983 -81.9739 353° North 183 211 8,100 -120 Descending Miami Center
09:04AM 27.7481 -81.9808 353° North 178 205 8,100  Level Miami Center
09:05AM 27.7897 -81.9850 355° North 178 205 8,100  Level Miami Center
09:06AM 27.8478 -81.9969 350° North 178 205 8,100  Level Miami Center
09:07AM 27.8975 -82.0039 353° North 178 205 8,100  Level Miami Center
09:08AM 27.9456 -82.0086 355° North 178 205 8,100  Level Miami Center
09:09AM 27.9931 -82.0153 353° North 178 205 8,100 -60 Level Miami Center
09:10AM 28.0408 -82.0247 350° North 178 205 8,000 -60 Descending Miami Center
09:11AM 28.1000 -82.0333 353° North 175 201 8,000  Level Tampa TRACON
09:12AM 28.1500 -82.0500 344° North 177 204 8,000  Level Tampa TRACON
09:13AM 28.2000 -82.0500 360° North 176 203 8,000  Level Tampa TRACON
09:14AM 28.2500 -82.0667 344° North 175 201 8,000  Level Tampa TRACON
09:15AM 28.3000 -82.0667 360° North 177 204 8,100  Climbing Tampa TRACON
09:16AM 28.3500 -82.0833 344° North 178 205 8,000  Descending Tampa TRACON
09:17AM 28.3833 -82.0833 360° North 177 204 8,100  Climbing Tampa TRACON
09:19AM 28.4542 -82.0992 349° North 177 204 8,100  Level Jacksonville Center
09:20AM 28.5106 -82.1036 356° North 180 207 8,200  Climbing Jacksonville Center
09:21AM 28.5608 -82.1172 347° North 179 206 8,100 -60 Descending Jacksonville Center
09:22AM 28.6089 -82.1239 353° North 178 205 8,100  Level Jacksonville Center
09:23AM 28.6653 -82.1331 352° North 176 203 8,100  Level Jacksonville Center
09:24AM 28.7092 -82.1375 355° North 177 204 8,200  Climbing Jacksonville Center
09:25AM 28.7592 -82.1467 351° North 177 204 8,100  Descending Jacksonville Center
09:26AM 28.8072 -82.1533 353° North 177 204 8,200  Climbing Jacksonville Center
09:27AM 28.8617 -82.1600 354° North 177 204 8,200  Level Jacksonville Center
09:28AM 28.9097 -82.1644 355° North 177 204 8,200 -60 Level Jacksonville Center
09:29AM 28.9578 -82.1758 348° North 177 204 8,100  Descending Jacksonville Center
09:30AM 29.0078 -82.1803 356° North 178 205 8,200  Climbing Jacksonville Center
09:31AM 29.0600 -82.1869 354° North 178 205 8,200 -360 Level Jacksonville Center
09:32AM 29.1144 -82.1961 352° North 187 215 7,500 -660 Descending Jacksonville Center
09:33AM 29.1728 -82.2053 352° North 202 232 6,900 -660 Descending Jacksonville Center
09:34AM 29.2231 -82.2097 356° North 192 221 6,200 -480 Descending Jacksonville Center
09:35AM 29.2669 -82.2142 355° North 178 205 6,100 -540 Descending Jacksonville Center
09:36AM 29.3169 -82.2447 332° Northwest 181 208 5,200 -840 Descending Jacksonville Center
09:37AM 29.3631 -82.2706 334° Northwest 184 212 4,400 -900 Descending Jacksonville Center
09:38AM 29.4069 -82.2989 331° Northwest 197 227 3,500 -720 Descending Jacksonville Center
09:39AM 29.4511 -82.3297 329° Northwest 188 216 3,100 -240 Descending Jacksonville Center
09:40AM 29.4867 -82.3511 332° Northwest 132 152 3,100  Level Jacksonville Center
09:41AM 29.5161 -82.3794 320° Northwest 129 148 3,200  Climbing Jacksonville Center
09:42AM 29.5517 -82.3983 335° Northwest 144 166 3,200  Level Jacksonville Center
09:43AM 29.5933 -82.4078 349° North 145 167 3,200  Level Jacksonville Center
09:44AM 29.6331 -82.4172 348° North 143 165 3,200 -360 Level Jacksonville Center
09:45AM 29.6686 -82.4169 360° North 138 159 2,600 -660 Descending Jacksonville Center
09:46AM 29.6872 -82.3881 53° Northeast 105 121 2,000 -600 Descending Jacksonville Center
09:47AM 29.6975 -82.3594 68° East 102 117 1,500 -480 Descending Jacksonville Center
09:48AM 29.6975 -82.3258 90° East 89 102 1,000 -480 Descending Jacksonville Center